createdAt,value
2022-07-27T00:00:29.606Z,67.70
2022-07-27T00:02:32.351Z,67.90
2022-07-27T00:04:35.273Z,68.40
2022-07-27T00:06:38.431Z,68.60
2022-07-27T00:08:42.604Z,69.40
2022-07-27T00:10:45.421Z,69.80
2022-07-27T00:12:49.036Z,69.60
2022-07-27T00:14:51.820Z,69.80
2022-07-27T00:16:54.725Z,70.10
2022-07-27T00:18:57.494Z,70.50
2022-07-27T00:21:00.319Z,70.80
2022-07-27T00:23:03.795Z,70.90
2022-07-27T00:25:08.824Z,70.70
2022-07-27T00:27:11.677Z,70.50
2022-07-27T00:29:14.932Z,70.90
2022-07-27T00:31:18.606Z,70.70
2022-07-27T00:33:21.386Z,70.80
2022-07-27T00:35:25.375Z,70.90
2022-07-27T00:37:28.102Z,70.90
2022-07-27T00:39:32.007Z,70.70
2022-07-27T00:41:36.057Z,70.90
2022-07-27T00:43:52.875Z,71.00
2022-07-27T00:45:55.575Z,70.90
2022-07-27T00:47:58.503Z,71.00
2022-07-27T00:50:01.459Z,70.90
2022-07-27T00:52:04.305Z,71.00
2022-07-27T00:54:07.473Z,70.80
2022-07-27T00:56:10.654Z,70.60
2022-07-27T00:58:15.377Z,70.50
2022-07-27T01:00:19.133Z,70.70
2022-07-27T01:02:22.862Z,70.50
2022-07-27T01:04:26.097Z,70.50
2022-07-27T01:06:29.675Z,70.50
2022-07-27T01:08:32.495Z,70.50
2022-07-27T01:10:34.516Z,70.50
2022-07-27T01:12:37.576Z,70.50
2022-07-27T01:14:41.860Z,70.10
2022-07-27T01:16:45.444Z,69.90
2022-07-27T01:18:48.457Z,69.80
2022-07-27T01:20:51.172Z,69.80
2022-07-27T01:22:55.235Z,70.00
2022-07-27T01:24:58.287Z,69.80
2022-07-27T01:27:02.068Z,69.60
2022-07-27T01:29:05.629Z,69.40
2022-07-27T01:31:08.391Z,69.30
2022-07-27T01:33:11.540Z,69.40
2022-07-27T01:35:14.267Z,69.50
2022-07-27T01:37:17.106Z,69.70
2022-07-27T01:39:21.255Z,69.50
2022-07-27T01:41:23.967Z,69.70
2022-07-27T01:43:26.680Z,70.00
2022-07-27T01:45:29.709Z,70.10
2022-07-27T01:47:32.469Z,70.30
2022-07-27T01:49:35.283Z,70.10
2022-07-27T01:51:38.056Z,70.10
2022-07-27T01:53:40.798Z,70.00
2022-07-27T01:55:45.211Z,70.00
2022-07-27T01:57:47.951Z,69.70
2022-07-27T01:59:50.646Z,69.70
2022-07-27T02:01:53.493Z,69.60
2022-07-27T02:03:56.338Z,69.40
2022-07-27T02:05:59.153Z,69.60
2022-07-27T02:08:02.017Z,69.80
2022-07-27T02:10:05.431Z,69.80
2022-07-27T02:12:27.383Z,69.40
2022-07-27T02:14:30.096Z,69.20
2022-07-27T02:16:34.021Z,69.10
2022-07-27T02:18:36.973Z,68.80
2022-07-27T02:20:42.245Z,69.00
2022-07-27T02:22:46.005Z,68.90
2022-07-27T02:24:48.744Z,68.80
2022-07-27T02:26:51.568Z,68.60
2022-07-27T02:28:55.609Z,68.50
2022-07-27T02:30:58.339Z,68.00
2022-07-27T02:33:01.145Z,68.00
2022-07-27T02:35:18.585Z,67.90
2022-07-27T02:37:22.518Z,68.10
2022-07-27T02:39:25.291Z,67.70
2022-07-27T02:41:28.023Z,68.00
2022-07-27T02:43:30.766Z,67.70
2022-07-27T02:45:34.829Z,67.80
2022-07-27T02:47:39.961Z,67.60
2022-07-27T02:49:42.690Z,67.30
2022-07-27T02:51:50.309Z,67.10
2022-07-27T02:53:53.051Z,67.10
2022-07-27T02:55:55.833Z,67.10
2022-07-27T02:57:58.553Z,67.00
2022-07-27T03:00:01.340Z,67.00
2022-07-27T03:02:05.450Z,67.00
2022-07-27T03:04:08.253Z,66.90
2022-07-27T03:06:11.801Z,66.80
2022-07-27T03:08:14.512Z,66.80
2022-07-27T03:10:17.275Z,66.80
2022-07-27T03:12:20.035Z,66.60
2022-07-27T03:14:22.747Z,67.00
2022-07-27T03:16:25.558Z,67.30
2022-07-27T03:18:29.802Z,67.30
2022-07-27T03:20:32.680Z,67.50
2022-07-27T03:22:35.560Z,67.30
2022-07-27T03:24:38.321Z,67.30
2022-07-27T03:26:41.097Z,67.20
2022-07-27T03:28:43.801Z,67.40
2022-07-27T03:30:46.580Z,67.20
2022-07-27T03:32:49.608Z,67.40
2022-07-27T03:34:53.729Z,67.70
2022-07-27T03:36:56.447Z,67.70
2022-07-27T03:39:04.262Z,67.80
2022-07-27T03:41:08.791Z,67.50
2022-07-27T03:43:11.716Z,67.40
2022-07-27T03:45:14.472Z,67.30
2022-07-27T03:47:17.231Z,67.30
2022-07-27T03:49:20.021Z,67.20
2022-07-27T03:51:24.204Z,67.00
2022-07-27T03:53:26.940Z,67.00
2022-07-27T03:55:30.094Z,66.80
2022-07-27T03:57:32.848Z,66.80
2022-07-27T03:59:35.561Z,66.70
2022-07-27T04:01:38.624Z,66.10
2022-07-27T04:03:44.374Z,66.20
2022-07-27T04:05:47.289Z,66.20
2022-07-27T04:07:54.831Z,66.50
2022-07-27T04:09:57.738Z,66.20
2022-07-27T04:12:01.036Z,65.70
2022-07-27T04:14:05.432Z,65.80
2022-07-27T04:16:08.227Z,65.90
2022-07-27T04:18:11.007Z,65.90
2022-07-27T04:20:14.670Z,65.50
2022-07-27T04:22:17.526Z,65.60
2022-07-27T04:24:21.587Z,66.20
2022-07-27T04:26:24.413Z,66.30
2022-07-27T04:28:27.398Z,66.00
2022-07-27T04:30:30.169Z,65.80
2022-07-27T04:32:33.071Z,65.50
2022-07-27T04:34:36.619Z,65.50
2022-07-27T04:36:39.540Z,65.70
2022-07-27T04:38:42.346Z,65.60
2022-07-27T04:40:46.391Z,65.20
2022-07-27T04:42:49.847Z,65.60
2022-07-27T04:44:52.725Z,65.70
2022-07-27T04:46:55.464Z,65.60
2022-07-27T04:48:58.299Z,65.70
2022-07-27T04:51:01.251Z,65.30
2022-07-27T04:53:04.013Z,65.40
2022-07-27T04:55:07.352Z,65.10
2022-07-27T04:57:11.662Z,64.90
2022-07-27T04:59:14.730Z,65.00
2022-07-27T05:01:17.756Z,65.00
2022-07-27T05:03:20.837Z,65.20
2022-07-27T05:05:23.955Z,65.00
2022-07-27T05:07:27.018Z,65.20
2022-07-27T05:09:29.862Z,65.10
2022-07-27T05:11:32.881Z,65.00
2022-07-27T05:13:40.426Z,64.90
2022-07-27T05:15:54.786Z,65.20
2022-07-27T05:17:58.380Z,65.00
2022-07-27T05:20:01.326Z,65.10
2022-07-27T05:22:04.040Z,64.90
2022-07-27T05:24:07.353Z,64.70
2022-07-27T05:26:10.127Z,64.50
2022-07-27T05:28:13.752Z,64.70
2022-07-27T05:30:17.880Z,65.00
2022-07-27T05:32:20.667Z,65.00
2022-07-27T05:34:23.392Z,64.70
2022-07-27T05:36:26.157Z,64.80
2022-07-27T05:38:28.920Z,65.20
2022-07-27T05:40:31.944Z,65.20
2022-07-27T05:42:34.825Z,64.90
2022-07-27T05:44:37.785Z,64.40
2022-07-27T05:46:41.890Z,64.10
2022-07-27T05:48:44.704Z,64.40
2022-07-27T05:50:47.479Z,64.60
2022-07-27T05:52:50.185Z,64.80
2022-07-27T05:54:52.916Z,64.90
2022-07-27T05:56:55.721Z,65.10
2022-07-27T05:58:59.364Z,65.30
2022-07-27T06:01:04.101Z,65.30
2022-07-27T06:03:08.271Z,65.30
2022-07-27T06:05:15.494Z,65.30
2022-07-27T06:07:36.773Z,64.90
2022-07-27T06:09:39.518Z,64.70
2022-07-27T06:11:42.345Z,65.40
2022-07-27T06:13:45.090Z,65.30
2022-07-27T06:15:47.855Z,65.70
2022-07-27T06:17:52.723Z,65.70
2022-07-27T06:19:56.886Z,65.40
2022-07-27T06:21:59.661Z,65.40
2022-07-27T06:24:02.460Z,65.40
2022-07-27T06:26:05.842Z,65.20
2022-07-27T06:28:09.295Z,65.00
2022-07-27T06:30:13.492Z,65.00
2022-07-27T06:32:16.327Z,65.80
2022-07-27T06:34:21.287Z,65.40
2022-07-27T06:36:27.367Z,65.50
2022-07-27T06:38:30.311Z,65.50
2022-07-27T06:40:33.220Z,64.90
2022-07-27T06:42:36.397Z,64.60
2022-07-27T06:44:39.140Z,64.20
2022-07-27T06:46:42.461Z,64.10
2022-07-27T06:48:45.331Z,64.20
2022-07-27T06:50:48.517Z,63.20
2022-07-27T06:52:52.612Z,63.80
2022-07-27T06:54:55.420Z,63.70
2022-07-27T06:56:58.119Z,64.30
2022-07-27T06:59:00.909Z,64.20
2022-07-27T07:01:03.798Z,62.80
2022-07-27T07:03:07.456Z,63.40
2022-07-27T07:05:11.110Z,64.10
2022-07-27T07:07:14.192Z,64.40
2022-07-27T07:09:18.428Z,63.10
2022-07-27T07:11:21.192Z,63.00
2022-07-27T07:13:24.387Z,62.60
2022-07-27T07:15:27.370Z,62.30
2022-07-27T07:17:30.092Z,61.60
2022-07-27T07:19:32.886Z,61.70
2022-07-27T07:21:35.650Z,61.80
2022-07-27T07:23:38.460Z,63.00
2022-07-27T07:25:43.240Z,62.00
2022-07-27T07:27:45.964Z,61.60
2022-07-27T07:29:48.697Z,61.40
2022-07-27T07:31:51.531Z,61.60
2022-07-27T07:33:54.397Z,61.40
2022-07-27T07:36:14.262Z,62.00
2022-07-27T07:38:17.463Z,61.70
2022-07-27T07:42:54.584Z,60.80
2022-07-27T07:44:57.359Z,60.00
2022-07-27T07:47:08.489Z,59.10
2022-07-27T07:49:11.913Z,58.70
2022-07-27T07:51:14.989Z,59.10
2022-07-27T07:53:17.768Z,59.90
2022-07-27T07:55:21.198Z,60.40
2022-07-27T07:57:24.465Z,59.60
2022-07-27T07:59:28.522Z,57.90
2022-07-27T08:01:31.388Z,59.10
2022-07-27T08:03:34.205Z,59.30
2022-07-27T08:05:37.588Z,58.80
2022-07-27T08:07:40.982Z,56.60
2022-07-27T08:09:44.253Z,56.80
2022-07-27T08:11:47.005Z,56.30
2022-07-27T08:13:49.837Z,55.50
2022-07-27T08:15:54.234Z,55.80
2022-07-27T08:17:57.277Z,56.10
2022-07-27T08:20:00.168Z,56.30
2022-07-27T08:22:02.905Z,56.60
2022-07-27T08:24:06.046Z,56.30
2022-07-27T08:26:08.837Z,56.60
2022-07-27T08:28:11.709Z,56.30
2022-07-27T08:30:15.345Z,56.70
2022-07-27T08:32:19.600Z,55.90
2022-07-27T08:34:22.478Z,56.70
2022-07-27T08:36:25.211Z,55.80
2022-07-27T08:38:28.020Z,55.10
2022-07-27T08:40:41.447Z,56.40
2022-07-27T08:42:46.398Z,55.10
2022-07-27T08:44:52.829Z,55.40
2022-07-27T08:46:57.651Z,54.90
2022-07-27T08:49:03.007Z,54.90
2022-07-27T08:51:07.477Z,55.10
2022-07-27T08:53:12.267Z,54.50
2022-07-27T08:55:15.024Z,54.30
2022-07-27T08:57:17.780Z,53.80
2022-07-27T08:59:20.718Z,53.70
2022-07-27T09:01:23.640Z,53.30
2022-07-27T09:03:26.506Z,53.30
2022-07-27T09:05:37.522Z,54.20
2022-07-27T09:07:40.799Z,53.50
2022-07-27T09:09:45.791Z,53.80
2022-07-27T09:12:05.544Z,54.30
2022-07-27T09:14:09.571Z,52.30
2022-07-27T09:16:20.794Z,52.40
2022-07-27T09:18:26.923Z,52.70
2022-07-27T09:20:31.018Z,52.60
2022-07-27T09:22:41.428Z,52.10
2022-07-27T09:25:02.882Z,53.20
2022-07-27T09:27:06.139Z,53.30
2022-07-27T09:29:11.573Z,52.90
2022-07-27T09:31:16.445Z,52.20
2022-07-27T09:33:19.268Z,52.90
2022-07-27T09:35:25.025Z,49.80
2022-07-27T09:37:29.405Z,51.30
2022-07-27T09:39:32.190Z,51.80
2022-07-27T09:41:42.792Z,51.90
2022-07-27T09:46:10.654Z,51.50
2022-07-27T09:48:15.712Z,51.70
2022-07-27T09:50:20.527Z,52.10
2022-07-27T09:52:24.877Z,52.20
2022-07-27T09:54:29.496Z,52.50
2022-07-27T09:56:33.298Z,51.90
2022-07-27T09:58:41.296Z,51.90
2022-07-27T10:00:57.278Z,50.40
2022-07-27T10:03:00.616Z,51.30
2022-07-27T10:05:03.553Z,50.50
2022-07-27T10:07:12.465Z,50.40
2022-07-27T10:09:16.199Z,49.80
2022-07-27T10:11:21.561Z,49.80
2022-07-27T10:13:24.490Z,51.10
2022-07-27T10:15:27.317Z,49.80
2022-07-27T10:17:30.558Z,49.40
2022-07-27T10:19:45.961Z,50.10
2022-07-27T10:21:49.922Z,50.90
2022-07-27T10:23:58.195Z,51.60
2022-07-27T10:26:22.137Z,49.00
2022-07-27T10:28:25.569Z,49.50
2022-07-27T10:30:29.113Z,50.40
2022-07-27T10:32:34.220Z,49.40
2022-07-27T10:34:39.398Z,48.30
2022-07-27T10:36:50.809Z,49.00
2022-07-27T10:38:56.438Z,49.90
2022-07-27T10:41:25.822Z,49.10
2022-07-27T10:43:28.602Z,49.20
2022-07-27T10:45:55.317Z,49.30
2022-07-27T10:48:02.850Z,48.40
2022-07-27T10:50:31.839Z,47.70
2022-07-27T10:52:45.308Z,49.20
2022-07-27T10:54:52.695Z,49.20
2022-07-27T10:57:02.244Z,49.10
2022-07-27T10:59:04.986Z,47.50
2022-07-27T11:01:08.437Z,47.30
2022-07-27T11:03:21.183Z,48.60
2022-07-27T11:05:58.445Z,47.60
2022-07-27T11:08:05.168Z,48.00
2022-07-27T11:10:10.291Z,48.60
2022-07-27T11:12:15.642Z,49.00
2022-07-27T11:14:19.388Z,48.20
2022-07-27T11:16:39.716Z,49.10
2022-07-27T11:18:55.675Z,48.50
2022-07-27T11:21:13.893Z,48.80
2022-07-27T11:23:50.636Z,46.70
2022-07-27T11:25:57.144Z,47.30
2022-07-27T11:28:08.121Z,47.40
2022-07-27T11:30:23.081Z,48.00
2022-07-27T11:32:26.229Z,47.60
2022-07-27T11:34:29.993Z,47.90
2022-07-27T11:36:38.881Z,47.70
2022-07-27T11:38:49.310Z,48.50
2022-07-27T11:41:03.040Z,47.60
2022-07-27T11:43:38.438Z,45.80
2022-07-27T11:45:41.936Z,46.30
2022-07-27T11:47:44.756Z,46.20
2022-07-27T11:49:47.619Z,45.80
2022-07-27T11:51:51.233Z,45.90
2022-07-27T11:53:58.454Z,46.80
2022-07-27T11:56:01.231Z,46.80
2022-07-27T11:58:04.983Z,47.30
2022-07-27T12:00:11.708Z,47.00
2022-07-27T12:02:17.930Z,46.80
2022-07-27T12:04:27.056Z,46.90
2022-07-27T12:06:30.162Z,47.00
2022-07-27T12:08:33.009Z,46.40
2022-07-27T12:10:37.750Z,45.10
2022-07-27T12:12:40.677Z,45.40
2022-07-27T12:14:46.773Z,46.70
2022-07-27T12:16:50.907Z,45.80
2022-07-27T12:18:53.878Z,46.40
2022-07-27T12:20:56.616Z,46.50
2022-07-27T12:23:05.272Z,46.50
2022-07-27T12:25:15.969Z,46.90
2022-07-27T12:27:21.856Z,47.20
2022-07-27T12:29:24.764Z,47.10
2022-07-27T12:31:27.569Z,46.80
2022-07-27T12:33:34.733Z,46.10
2022-07-27T12:35:46.571Z,46.30
2022-07-27T12:37:56.401Z,46.10
2022-07-27T12:40:00.136Z,46.90
2022-07-27T12:42:07.141Z,45.70
2022-07-27T12:44:12.005Z,45.10
2022-07-27T12:46:15.687Z,45.30
2022-07-27T12:48:21.105Z,45.20
2022-07-27T12:50:29.945Z,46.30
2022-07-27T12:52:33.571Z,45.10
2022-07-27T12:54:37.198Z,45.30
2022-07-27T12:56:41.225Z,45.70
2022-07-27T12:58:59.165Z,45.90
2022-07-27T13:01:02.036Z,45.80
2022-07-27T13:03:06.042Z,45.60
2022-07-27T13:05:11.110Z,45.60
2022-07-27T13:07:15.416Z,44.60
2022-07-27T13:09:18.158Z,45.30
2022-07-27T13:11:20.946Z,44.60
2022-07-27T13:13:24.714Z,45.90
2022-07-27T13:15:27.777Z,46.40
2022-07-27T13:17:30.489Z,46.40
2022-07-27T13:19:33.338Z,45.30
2022-07-27T13:21:36.362Z,45.70
2022-07-27T13:23:40.534Z,45.30
2022-07-27T13:25:43.661Z,43.60
2022-07-27T13:27:47.542Z,43.90
2022-07-27T13:29:50.294Z,43.30
2022-07-27T13:31:57.320Z,44.10
2022-07-27T13:34:01.119Z,43.20
2022-07-27T13:36:05.106Z,44.00
2022-07-27T13:38:08.625Z,44.00
2022-07-27T13:40:18.723Z,44.20
2022-07-27T13:42:22.049Z,44.50
2022-07-27T13:44:57.368Z,44.50
2022-07-27T13:46:48.475Z,44.70
2022-07-27T13:48:51.263Z,44.40
2022-07-27T13:50:54.053Z,43.60
2022-07-27T13:52:56.822Z,44.60
2022-07-27T13:54:59.608Z,45.40
2022-07-27T13:57:03.689Z,44.70
2022-07-27T13:59:07.990Z,43.80
2022-07-27T14:01:11.120Z,43.80
2022-07-27T14:03:14.250Z,43.60
2022-07-27T14:05:18.413Z,43.70
2022-07-27T14:07:27.767Z,42.60
2022-07-27T14:09:45.598Z,43.30
2022-07-27T14:11:52.902Z,43.80
2022-07-27T14:13:57.809Z,42.10
2022-07-27T14:16:01.476Z,42.10
2022-07-27T14:18:05.154Z,42.10
2022-07-27T14:20:09.613Z,42.60
2022-07-27T14:22:12.420Z,42.90
2022-07-27T14:24:15.225Z,42.40
2022-07-27T14:26:18.088Z,43.00
2022-07-27T14:28:21.866Z,42.30
2022-07-27T14:30:26.123Z,43.60
2022-07-27T14:32:28.843Z,42.60
2022-07-27T14:34:31.565Z,43.20
2022-07-27T14:36:34.301Z,43.30
2022-07-27T14:38:38.599Z,43.50
2022-07-27T14:40:42.142Z,43.70
2022-07-27T14:42:44.846Z,43.30
2022-07-27T14:44:47.576Z,43.00
2022-07-27T14:46:51.623Z,43.30
2022-07-27T14:49:09.672Z,43.00
2022-07-27T14:51:12.826Z,43.80
2022-07-27T14:53:15.602Z,44.00
2022-07-27T14:55:18.713Z,44.10
2022-07-27T14:57:21.477Z,44.60
2022-07-27T14:59:24.474Z,44.80
2022-07-27T15:01:27.367Z,43.10
2022-07-27T15:03:31.485Z,42.50
2022-07-27T15:05:49.510Z,42.50
2022-07-27T15:07:53.419Z,43.50
2022-07-27T15:09:56.193Z,41.60
2022-07-27T15:11:59.321Z,40.50
2022-07-27T15:14:05.276Z,41.10
2022-07-27T15:16:08.874Z,39.80
2022-07-27T15:18:11.665Z,41.50
2022-07-27T15:20:15.711Z,42.00
2022-07-27T15:22:18.569Z,41.30
2022-07-27T15:24:24.030Z,39.80
2022-07-27T15:26:26.745Z,40.40
2022-07-27T15:28:29.566Z,41.10
2022-07-27T15:30:37.886Z,40.10
2022-07-27T15:32:41.332Z,38.70
2022-07-27T15:34:44.119Z,39.60
2022-07-27T15:36:52.157Z,40.40
2022-07-27T15:38:55.506Z,39.50
2022-07-27T15:40:58.666Z,38.70
2022-07-27T15:43:01.480Z,40.60
2022-07-27T15:45:04.682Z,39.10
2022-07-27T15:47:07.940Z,39.50
2022-07-27T15:49:11.405Z,38.00
2022-07-27T15:51:14.527Z,37.50
2022-07-27T15:53:20.679Z,36.50
2022-07-27T15:55:23.523Z,38.20
2022-07-27T15:57:26.244Z,35.50
2022-07-27T15:59:28.981Z,35.90
2022-07-27T16:01:35.107Z,37.10
2022-07-27T16:03:38.727Z,36.20
2022-07-27T16:05:42.831Z,36.50
2022-07-27T16:07:45.811Z,36.70
2022-07-27T16:09:49.945Z,37.90
2022-07-27T16:11:52.957Z,37.90
2022-07-27T16:13:55.801Z,38.10
2022-07-27T16:16:16.477Z,38.80
2022-07-27T16:18:19.392Z,38.40
2022-07-27T16:20:22.352Z,37.30
2022-07-27T16:22:25.499Z,34.80
2022-07-27T16:24:28.505Z,36.10
2022-07-27T16:26:32.856Z,33.60
2022-07-27T16:28:39.626Z,33.30
2022-07-27T16:30:42.448Z,30.60
2022-07-27T16:32:45.389Z,30.30
2022-07-27T16:34:48.144Z,32.00
2022-07-27T16:36:50.858Z,31.70
2022-07-27T16:38:53.997Z,32.10
2022-07-27T16:40:56.717Z,30.70
2022-07-27T16:43:00.785Z,30.10
2022-07-27T16:45:03.759Z,31.90
2022-07-27T16:47:06.942Z,33.20
2022-07-27T16:49:10.541Z,34.60
2022-07-27T16:51:14.368Z,36.10
2022-07-27T16:53:17.220Z,36.00
2022-07-27T16:55:19.963Z,36.00
2022-07-27T16:57:25.397Z,34.10
2022-07-27T16:59:29.504Z,35.20
2022-07-27T17:01:32.600Z,36.50
2022-07-27T17:03:35.436Z,34.80
2022-07-27T17:05:38.652Z,34.40
2022-07-27T17:07:42.840Z,34.10
2022-07-27T17:09:45.604Z,35.70
2022-07-27T17:11:48.377Z,36.40
2022-07-27T17:13:57.633Z,35.20
2022-07-27T17:16:04.141Z,35.60
2022-07-27T17:18:07.357Z,35.50
2022-07-27T17:20:11.425Z,35.70
2022-07-27T17:22:14.222Z,35.00
2022-07-27T17:24:16.953Z,35.00
2022-07-27T17:26:19.702Z,35.10
2022-07-27T17:28:25.544Z,35.00
2022-07-27T17:30:28.271Z,34.60
2022-07-27T17:32:33.841Z,35.10
2022-07-27T17:34:36.659Z,35.40
2022-07-27T17:36:39.419Z,35.80
2022-07-27T17:38:42.551Z,35.70
2022-07-27T17:40:45.284Z,36.00
2022-07-27T17:42:48.037Z,35.50
2022-07-27T17:44:51.398Z,35.70
2022-07-27T17:46:54.343Z,36.40
2022-07-27T17:48:58.484Z,37.30
2022-07-27T17:51:01.446Z,37.20
2022-07-27T17:53:04.285Z,36.70
2022-07-27T17:55:08.486Z,37.90
2022-07-27T17:57:11.198Z,38.00
2022-07-27T17:59:36.467Z,38.00
2022-07-27T18:01:47.506Z,36.90
2022-07-27T18:03:51.105Z,37.20
2022-07-27T18:05:55.358Z,37.40
2022-07-27T18:07:58.165Z,37.60
2022-07-27T18:10:01.062Z,36.60
2022-07-27T18:12:03.878Z,36.20
2022-07-27T18:14:06.705Z,36.30
2022-07-27T18:16:11.703Z,36.00
2022-07-27T18:18:15.382Z,36.50
2022-07-27T18:20:18.241Z,36.60
2022-07-27T18:22:22.397Z,36.70
2022-07-27T18:24:25.180Z,36.10
2022-07-27T18:26:27.894Z,36.40
2022-07-27T18:28:33.450Z,37.30
2022-07-27T18:30:39.999Z,37.80
2022-07-27T18:32:43.786Z,38.20
2022-07-27T18:34:47.853Z,38.80
2022-07-27T18:36:50.706Z,39.00
2022-07-27T18:38:55.145Z,39.20
2022-07-27T18:40:59.345Z,39.70
2022-07-27T18:43:02.448Z,40.00
2022-07-27T18:45:07.355Z,40.10
2022-07-27T18:47:10.158Z,40.40
2022-07-27T18:49:14.085Z,40.70
2022-07-27T18:51:17.710Z,40.80
2022-07-27T18:53:20.602Z,41.10
2022-07-27T18:55:25.171Z,41.10
2022-07-27T18:57:27.991Z,41.50
2022-07-27T18:59:31.033Z,41.60
2022-07-27T19:01:34.010Z,41.60
2022-07-27T19:03:37.229Z,41.50
2022-07-27T19:05:44.785Z,41.50
2022-07-27T19:07:48.360Z,41.80
2022-07-27T19:09:51.107Z,42.40
2022-07-27T19:11:55.220Z,42.70
2022-07-27T19:13:59.046Z,42.90
2022-07-27T19:16:01.846Z,43.20
2022-07-27T19:18:04.881Z,43.30
2022-07-27T19:20:09.321Z,43.40
2022-07-27T19:22:12.137Z,43.40
2022-07-27T19:24:14.923Z,43.80
2022-07-27T19:26:17.800Z,43.90
2022-07-27T19:28:22.165Z,44.20
2022-07-27T19:30:25.029Z,44.30
2022-07-27T19:32:27.764Z,44.70
2022-07-27T19:34:30.617Z,44.70
2022-07-27T19:36:33.460Z,44.70
2022-07-27T19:38:36.239Z,44.80
2022-07-27T19:40:44.743Z,45.00
2022-07-27T19:42:48.004Z,45.20
2022-07-27T19:44:52.085Z,45.30
2022-07-27T19:46:55.054Z,45.40
2022-07-27T19:48:58.055Z,45.50
2022-07-27T19:51:06.662Z,45.60
2022-07-27T19:53:09.957Z,45.60
2022-07-27T19:55:12.701Z,45.60
2022-07-27T19:57:15.533Z,45.70
2022-07-27T19:59:18.281Z,45.70
2022-07-27T20:01:22.571Z,45.90
2022-07-27T20:03:25.708Z,45.80
2022-07-27T20:05:28.542Z,46.00
2022-07-27T20:07:31.425Z,46.00
2022-07-27T20:09:34.248Z,46.30
2022-07-27T20:11:36.981Z,46.40
2022-07-27T20:13:39.696Z,46.60
2022-07-27T20:15:42.683Z,46.60
2022-07-27T20:17:46.742Z,46.90
2022-07-27T20:19:49.505Z,46.70
2022-07-27T20:21:52.262Z,46.80
2022-07-27T20:23:57.353Z,47.10
2022-07-27T20:26:00.170Z,47.20
2022-07-27T20:28:05.020Z,47.40
2022-07-27T20:30:09.780Z,47.30
2022-07-27T20:32:12.592Z,47.30
2022-07-27T20:34:16.888Z,47.30
2022-07-27T20:36:19.632Z,47.20
2022-07-27T20:38:22.371Z,47.50
2022-07-27T20:40:25.934Z,47.80
2022-07-27T20:42:28.663Z,48.00
2022-07-27T20:44:31.671Z,48.10
2022-07-27T20:46:34.568Z,48.00
2022-07-27T20:48:37.767Z,48.30
2022-07-27T20:50:41.867Z,48.70
2022-07-27T20:52:44.848Z,49.20
2022-07-27T20:54:47.604Z,49.40
2022-07-27T20:56:50.341Z,49.80
2022-07-27T20:58:53.055Z,49.90
2022-07-27T21:00:55.873Z,49.90
2022-07-27T21:02:58.621Z,50.10
2022-07-27T21:05:01.368Z,50.40
2022-07-27T21:07:05.421Z,50.10
2022-07-27T21:09:08.789Z,50.10
2022-07-27T21:11:11.524Z,50.20
2022-07-27T21:13:14.227Z,50.10
2022-07-27T21:15:17.367Z,50.10
2022-07-27T21:17:20.439Z,50.70
2022-07-27T21:19:23.199Z,49.90
2022-07-27T21:21:27.776Z,50.00
2022-07-27T21:23:52.071Z,50.10
2022-07-27T21:25:54.816Z,50.20
2022-07-27T21:27:59.729Z,50.10
2022-07-27T21:30:02.501Z,49.90
2022-07-27T21:32:05.328Z,50.20
2022-07-27T21:34:08.938Z,50.20
2022-07-27T21:36:11.744Z,50.30
2022-07-27T21:38:14.456Z,50.40
2022-07-27T21:40:18.812Z,50.30
2022-07-27T21:42:21.517Z,50.60
2022-07-27T21:44:24.273Z,50.80
2022-07-27T21:46:27.043Z,51.00
2022-07-27T21:48:29.812Z,51.00
2022-07-27T21:50:32.642Z,51.00
2022-07-27T21:52:35.458Z,51.00
2022-07-27T21:54:38.231Z,50.90
2022-07-27T21:56:50.477Z,51.00
2022-07-27T21:58:53.469Z,51.00
2022-07-27T22:00:56.364Z,51.30
2022-07-27T22:02:59.138Z,51.30
2022-07-27T22:05:02.318Z,51.60
2022-07-27T22:07:06.269Z,52.10
2022-07-27T22:09:09.027Z,52.50
2022-07-27T22:11:11.741Z,52.70
2022-07-27T22:13:15.818Z,52.60
2022-07-27T22:15:18.706Z,52.80
2022-07-27T22:17:21.411Z,52.50
2022-07-27T22:19:24.339Z,52.60
2022-07-27T22:21:27.074Z,52.60
2022-07-27T22:23:30.104Z,52.40
2022-07-27T22:25:32.918Z,52.30
2022-07-27T22:27:35.834Z,52.20
2022-07-27T22:29:40.110Z,52.30
2022-07-27T22:31:42.887Z,52.60
2022-07-27T22:33:46.181Z,52.50
2022-07-27T22:35:48.956Z,53.40
2022-07-27T22:37:51.668Z,53.00
2022-07-27T22:39:54.526Z,52.90
2022-07-27T22:41:57.271Z,52.60
2022-07-27T22:44:00.229Z,53.40
2022-07-27T22:46:05.026Z,52.90
2022-07-27T22:48:07.981Z,53.10
2022-07-27T22:50:13.373Z,53.10
2022-07-27T22:52:21.400Z,53.20
2022-07-27T22:54:24.539Z,53.00
2022-07-27T22:56:27.284Z,53.10
2022-07-27T22:58:30.030Z,53.10
2022-07-27T23:00:32.786Z,52.80
2022-07-27T23:02:38.388Z,53.10
2022-07-27T23:04:41.118Z,53.30
2022-07-27T23:06:43.840Z,53.30
2022-07-27T23:08:46.598Z,53.20
2022-07-27T23:10:49.643Z,53.30
2022-07-27T23:12:52.359Z,53.30
2022-07-27T23:14:55.174Z,53.30
2022-07-27T23:16:58.374Z,53.60
2022-07-27T23:19:02.424Z,54.00
2022-07-27T23:21:05.222Z,55.00
2022-07-27T23:23:15.717Z,54.90
2022-07-27T23:25:19.556Z,55.10
2022-07-27T23:27:24.755Z,55.20
2022-07-27T23:29:27.549Z,55.10
2022-07-27T23:31:30.390Z,54.80
2022-07-27T23:33:33.874Z,54.70
2022-07-27T23:35:37.977Z,54.50
2022-07-27T23:37:40.784Z,54.50
2022-07-27T23:39:43.521Z,54.40
2022-07-27T23:41:49.773Z,54.30
2022-07-27T23:43:53.009Z,54.40
2022-07-27T23:45:55.757Z,54.40
2022-07-27T23:47:58.484Z,54.60
2022-07-27T23:50:01.516Z,54.40
2022-07-27T23:52:06.069Z,54.50
2022-07-27T23:54:09.230Z,54.70
2022-07-27T23:56:12.171Z,54.60
2022-07-27T23:58:14.883Z,54.60
